createdAt,value
2023-03-05T00:01:29.116Z,3.85
2023-03-05T00:03:55.596Z,3.42
2023-03-05T00:06:22.320Z,2.25
2023-03-05T00:08:48.542Z,4.25
2023-03-05T00:11:14.830Z,2.45
2023-03-05T00:13:40.727Z,2.67
2023-03-05T00:16:08.677Z,2.83
2023-03-05T00:18:34.946Z,2.55
2023-03-05T00:21:00.883Z,2.83
2023-03-05T00:23:27.028Z,3.35
2023-03-05T00:25:52.761Z,2.05
2023-03-05T00:28:18.559Z,2.83
2023-03-05T00:30:44.327Z,2.55
2023-03-05T00:33:11.225Z,1.83
2023-03-05T00:35:44.167Z,2.50
2023-03-05T00:38:10.383Z,2.33
2023-03-05T00:40:37.351Z,2.38
2023-03-05T00:43:03.713Z,2.72
2023-03-05T00:45:29.709Z,2.22
2023-03-05T00:47:55.530Z,3.03
2023-03-05T00:50:21.274Z,1.48
2023-03-05T00:52:46.995Z,1.85
2023-03-05T00:55:12.751Z,1.83
2023-03-05T00:57:38.478Z,2.20
2023-03-05T01:00:05.180Z,2.72
2023-03-05T01:02:32.654Z,2.90
2023-03-05T01:04:59.554Z,3.13
2023-03-05T01:07:25.321Z,1.98
2023-03-05T01:09:51.056Z,2.60
2023-03-05T01:12:16.759Z,2.03
2023-03-05T01:14:42.479Z,1.83
2023-03-05T01:17:08.237Z,2.00
2023-03-05T01:19:34.030Z,1.60
2023-03-05T01:21:59.756Z,1.70
2023-03-05T01:24:25.832Z,1.63
2023-03-05T01:26:51.553Z,1.60
2023-03-05T01:29:17.328Z,1.95
2023-03-05T01:31:43.345Z,2.53
2023-03-05T01:34:09.295Z,2.45
2023-03-05T01:36:35.047Z,1.73
2023-03-05T01:39:01.790Z,1.90
2023-03-05T01:41:27.627Z,3.38
2023-03-05T01:43:54.092Z,1.55
2023-03-05T01:46:29.046Z,1.50
2023-03-05T01:48:54.796Z,2.75
2023-03-05T01:51:21.996Z,1.70
2023-03-05T01:53:47.881Z,2.28
2023-03-05T01:56:14.034Z,1.67
2023-03-05T01:58:40.021Z,2.20
2023-03-05T02:01:05.945Z,1.30
2023-03-05T02:03:32.070Z,2.58
2023-03-05T02:05:57.812Z,1.45
2023-03-05T02:08:23.678Z,2.08
2023-03-05T02:10:54.590Z,1.73
2023-03-05T02:13:22.043Z,1.70
2023-03-05T02:15:49.148Z,2.60
2023-03-05T02:18:15.641Z,1.95
2023-03-05T02:20:47.241Z,1.30
2023-03-05T02:23:13.508Z,1.80
2023-03-05T02:25:39.341Z,1.60
2023-03-05T02:28:23.752Z,2.05
2023-03-05T02:30:49.921Z,1.38
2023-03-05T02:33:16.428Z,1.90
2023-03-05T02:35:43.104Z,1.70
2023-03-05T02:38:13.164Z,1.20
2023-03-05T02:40:39.015Z,2.85
2023-03-05T02:43:05.140Z,1.40
2023-03-05T02:45:30.971Z,1.58
2023-03-05T02:47:56.724Z,1.88
2023-03-05T02:50:23.079Z,1.60
2023-03-05T02:52:48.810Z,2.53
2023-03-05T02:55:14.584Z,1.50
2023-03-05T02:57:40.376Z,1.63
2023-03-05T03:00:06.380Z,1.90
2023-03-05T03:02:32.171Z,1.40
2023-03-05T03:04:57.930Z,1.35
2023-03-05T03:07:23.641Z,1.42
2023-03-05T03:09:49.444Z,1.55
2023-03-05T03:12:15.218Z,1.35
2023-03-05T03:14:41.965Z,1.90
2023-03-05T03:17:12.149Z,1.90
2023-03-05T03:19:38.431Z,1.38
2023-03-05T03:22:04.836Z,1.27
2023-03-05T03:24:31.441Z,1.13
2023-03-05T03:26:57.211Z,1.70
2023-03-05T03:29:22.960Z,1.20
2023-03-05T03:31:48.775Z,1.08
2023-03-05T03:34:15.077Z,1.15
2023-03-05T03:36:42.013Z,1.02
2023-03-05T03:39:09.294Z,1.48
2023-03-05T03:41:35.645Z,1.20
2023-03-05T03:44:02.830Z,1.50
2023-03-05T03:46:28.820Z,1.43
2023-03-05T03:48:54.553Z,1.60
2023-03-05T03:51:20.356Z,1.60
2023-03-05T03:53:46.383Z,1.70
2023-03-05T03:56:12.113Z,1.97
2023-03-05T03:58:37.858Z,1.40
2023-03-05T04:01:03.780Z,1.00
2023-03-05T04:03:29.511Z,1.50
2023-03-05T04:05:55.268Z,1.40
2023-03-05T04:08:21.018Z,1.10
2023-03-05T04:10:46.904Z,1.53
2023-03-05T04:13:12.626Z,1.10
2023-03-05T04:15:38.449Z,1.47
2023-03-05T04:18:04.173Z,1.87
2023-03-05T04:20:29.962Z,1.40
2023-03-05T04:22:55.676Z,1.03
2023-03-05T04:25:21.415Z,1.23
2023-03-05T04:27:47.147Z,1.47
2023-03-05T04:30:16.967Z,1.80
2023-03-05T04:32:42.778Z,1.30
2023-03-05T04:35:09.037Z,1.20
2023-03-05T04:37:34.784Z,1.83
2023-03-05T04:40:00.594Z,1.10
2023-03-05T04:42:26.317Z,3.03
2023-03-05T04:44:52.080Z,1.17
2023-03-05T04:47:18.626Z,0.90
2023-03-05T04:49:44.718Z,1.10
2023-03-05T04:52:11.524Z,3.93
2023-03-05T04:54:37.312Z,1.13
2023-03-05T04:57:03.032Z,1.50
2023-03-05T04:59:28.874Z,1.40
2023-03-05T05:01:54.967Z,1.40
2023-03-05T05:04:20.814Z,1.10
2023-03-05T05:06:46.553Z,1.30
2023-03-05T05:09:12.278Z,1.13
2023-03-05T05:11:38.656Z,1.33
2023-03-05T05:14:04.383Z,1.40
2023-03-05T05:16:30.242Z,1.43
2023-03-05T05:18:56.139Z,1.70
2023-03-05T05:21:21.982Z,1.77
2023-03-05T05:23:47.721Z,1.63
2023-03-05T05:26:13.771Z,1.30
2023-03-05T05:28:42.257Z,1.70
2023-03-05T05:31:09.960Z,2.55
2023-03-05T05:33:35.752Z,1.10
2023-03-05T05:36:03.209Z,1.27
2023-03-05T05:38:28.960Z,1.63
2023-03-05T05:40:54.666Z,1.70
2023-03-05T05:43:20.386Z,1.50
2023-03-05T05:45:46.265Z,1.55
2023-03-05T05:48:12.140Z,1.20
2023-03-05T05:50:38.636Z,1.30
2023-03-05T05:53:04.485Z,1.48
2023-03-05T05:55:30.367Z,1.40
2023-03-05T05:57:56.081Z,1.08
2023-03-05T06:00:22.072Z,1.50
2023-03-05T06:02:47.839Z,1.30
2023-03-05T06:05:14.381Z,1.17
2023-03-05T06:07:40.212Z,1.45
2023-03-05T06:10:06.395Z,1.25
2023-03-05T06:12:32.122Z,1.60
2023-03-05T06:14:57.944Z,1.20
2023-03-05T06:17:30.445Z,1.25
2023-03-05T06:19:57.619Z,1.30
2023-03-05T06:22:23.346Z,1.33
2023-03-05T06:24:49.064Z,1.27
2023-03-05T06:27:14.775Z,1.48
2023-03-05T06:29:40.512Z,1.05
2023-03-05T06:32:06.270Z,1.63
2023-03-05T06:34:32.013Z,1.05
2023-03-05T06:36:57.716Z,1.05
2023-03-05T06:39:23.494Z,1.45
2023-03-05T06:41:52.348Z,0.90
2023-03-05T06:44:18.120Z,1.38
2023-03-05T06:46:43.851Z,1.00
2023-03-05T06:49:09.846Z,1.08
2023-03-05T06:51:36.913Z,1.20
2023-03-05T06:54:04.440Z,3.20
2023-03-05T06:56:30.200Z,1.35
2023-03-05T06:58:55.950Z,1.05
2023-03-05T07:01:23.022Z,0.90
2023-03-05T07:03:49.989Z,0.98
2023-03-05T07:06:15.866Z,1.50
2023-03-05T07:08:41.632Z,1.10
2023-03-05T07:11:11.354Z,0.80
2023-03-05T07:13:37.316Z,0.97
2023-03-05T07:16:07.108Z,1.05
2023-03-05T07:18:33.005Z,0.82
2023-03-05T07:21:05.583Z,0.80
2023-03-05T07:23:31.856Z,1.58
2023-03-05T07:25:59.980Z,1.88
2023-03-05T07:28:25.704Z,2.15
2023-03-05T07:30:58.573Z,1.40
2023-03-05T07:33:24.920Z,1.00
2023-03-05T07:35:50.689Z,1.90
2023-03-05T07:38:16.424Z,1.17
2023-03-05T07:40:42.131Z,1.27
2023-03-05T07:43:08.186Z,1.00
2023-03-05T07:45:33.903Z,1.73
2023-03-05T07:47:59.606Z,0.60
2023-03-05T07:50:25.457Z,1.10
2023-03-05T07:52:51.212Z,1.08
2023-03-05T07:55:17.050Z,0.90
2023-03-05T07:57:42.775Z,0.95
2023-03-05T08:00:08.898Z,0.80
2023-03-05T08:02:34.717Z,0.82
2023-03-05T08:05:00.531Z,0.95
2023-03-05T08:07:26.291Z,1.25
2023-03-05T08:09:52.109Z,0.77
2023-03-05T08:12:17.971Z,1.00
2023-03-05T08:14:43.724Z,0.82
2023-03-05T08:17:09.855Z,1.75
2023-03-05T08:19:35.851Z,0.95
2023-03-05T08:22:01.618Z,2.10
2023-03-05T08:24:29.085Z,1.05
2023-03-05T08:26:55.836Z,1.15
2023-03-05T08:29:21.713Z,1.02
2023-03-05T08:31:48.082Z,0.88
2023-03-05T08:34:13.966Z,2.47
2023-03-05T08:36:39.809Z,1.17
2023-03-05T08:39:07.831Z,1.05
2023-03-05T08:41:33.820Z,1.00
2023-03-05T08:43:59.538Z,1.25
2023-03-05T08:46:25.434Z,1.20
2023-03-05T08:48:51.209Z,1.80
2023-03-05T08:51:18.289Z,0.80
2023-03-05T08:53:44.727Z,1.10
2023-03-05T08:56:10.549Z,1.30
2023-03-05T08:58:36.710Z,0.82
2023-03-05T09:01:03.009Z,0.80
2023-03-05T09:03:32.345Z,0.65
2023-03-05T09:05:59.314Z,1.70
2023-03-05T09:08:25.071Z,1.02
2023-03-05T09:10:51.007Z,1.17
2023-03-05T09:13:16.763Z,1.17
2023-03-05T09:15:42.751Z,1.25
2023-03-05T09:18:08.649Z,1.00
2023-03-05T09:20:34.968Z,0.82
2023-03-05T09:23:01.214Z,1.23
2023-03-05T09:25:27.031Z,1.00
2023-03-05T09:27:52.888Z,1.25
2023-03-05T09:30:18.881Z,0.90
2023-03-05T09:32:44.733Z,1.13
2023-03-05T09:35:10.507Z,1.45
2023-03-05T09:37:36.275Z,1.23
2023-03-05T09:40:02.860Z,1.55
2023-03-05T09:42:47.217Z,2.60
2023-03-05T09:45:26.982Z,1.38
2023-03-05T09:48:03.846Z,1.20
2023-03-05T09:50:33.026Z,1.00
2023-03-05T09:53:02.481Z,1.38
2023-03-05T09:55:34.873Z,1.30
2023-03-05T09:58:06.142Z,1.70
2023-03-05T10:00:34.654Z,1.40
2023-03-05T10:03:03.487Z,1.40
2023-03-05T10:05:50.785Z,1.10
2023-03-05T10:08:19.283Z,1.30
2023-03-05T10:10:50.848Z,1.02
2023-03-05T10:13:29.727Z,1.30
2023-03-05T10:16:14.314Z,1.85
2023-03-05T10:18:53.341Z,1.45
2023-03-05T10:21:34.877Z,1.08
2023-03-05T10:24:00.628Z,1.27
2023-03-05T10:26:44.896Z,1.17
2023-03-05T10:29:20.090Z,1.40
2023-03-05T10:32:00.956Z,1.23
2023-03-05T10:34:47.066Z,1.10
2023-03-05T10:37:22.466Z,2.05
2023-03-05T10:39:48.210Z,1.05
2023-03-05T10:42:32.757Z,1.20
2023-03-05T10:45:00.130Z,1.10
2023-03-05T10:47:26.004Z,0.93
2023-03-05T10:49:53.631Z,1.33
2023-03-05T10:52:21.921Z,1.00
2023-03-05T10:54:47.722Z,1.23
2023-03-05T10:57:24.439Z,1.35
2023-03-05T10:59:51.701Z,1.40
2023-03-05T11:02:18.451Z,1.70
2023-03-05T11:04:59.619Z,1.00
2023-03-05T11:07:25.419Z,2.42
2023-03-05T11:10:03.510Z,1.50
2023-03-05T11:12:33.871Z,2.13
2023-03-05T11:15:06.017Z,0.93
2023-03-05T11:17:34.029Z,0.85
2023-03-05T11:20:18.706Z,1.00
2023-03-05T11:23:01.341Z,0.90
2023-03-05T11:25:27.432Z,0.98
2023-03-05T11:27:57.571Z,0.73
2023-03-05T11:30:34.322Z,0.80
2023-03-05T11:33:09.957Z,0.88
2023-03-05T11:35:37.729Z,0.90
2023-03-05T11:38:04.455Z,1.00
2023-03-05T11:40:32.044Z,0.80
2023-03-05T11:42:59.277Z,0.88
2023-03-05T11:45:25.818Z,0.85
2023-03-05T11:47:53.060Z,1.27
2023-03-05T11:50:22.575Z,0.80
2023-03-05T11:52:50.254Z,1.35
2023-03-05T11:55:27.235Z,1.05
2023-03-05T11:58:00.745Z,1.00
2023-03-05T12:00:28.585Z,1.25
2023-03-05T12:02:56.153Z,0.65
2023-03-05T12:05:22.134Z,0.68
2023-03-05T12:07:49.512Z,1.40
2023-03-05T12:10:19.587Z,0.90
2023-03-05T12:12:53.421Z,0.90
2023-03-05T12:15:22.443Z,1.33
2023-03-05T12:17:58.094Z,1.00
2023-03-05T12:20:47.221Z,1.80
2023-03-05T12:23:13.941Z,0.77
2023-03-05T12:25:50.745Z,1.15
2023-03-05T12:28:36.557Z,0.93
2023-03-05T12:31:21.253Z,0.82
2023-03-05T12:33:53.702Z,0.77
2023-03-05T12:36:22.474Z,1.08
2023-03-05T12:38:55.076Z,0.95
2023-03-05T12:41:24.535Z,0.70
2023-03-05T12:44:06.520Z,0.65
2023-03-05T12:46:32.567Z,0.50
2023-03-05T12:48:58.963Z,0.80
2023-03-05T12:51:29.932Z,0.80
2023-03-05T12:53:56.303Z,0.80
2023-03-05T12:56:26.159Z,0.77
2023-03-05T12:58:53.046Z,1.20
2023-03-05T13:01:37.652Z,1.05
2023-03-05T13:04:35.831Z,1.23
2023-03-05T13:07:03.938Z,1.50
2023-03-05T13:09:33.064Z,1.00
2023-03-05T13:11:59.320Z,0.98
2023-03-05T13:14:30.123Z,0.88
2023-03-05T13:19:22.129Z,1.00
2023-03-05T13:22:08.247Z,0.90
2023-03-05T13:24:34.143Z,0.90
2023-03-05T13:26:59.993Z,1.35
2023-03-05T13:29:30.321Z,1.13
2023-03-05T13:32:03.998Z,1.27
2023-03-05T13:34:46.750Z,1.20
2023-03-05T13:37:20.956Z,1.23
2023-03-05T13:39:53.321Z,1.48
2023-03-05T13:42:24.004Z,1.20
2023-03-05T13:47:17.930Z,0.75
2023-03-05T13:49:44.197Z,1.00
2023-03-05T13:52:10.199Z,1.33
2023-03-05T13:54:36.081Z,1.55
2023-03-05T13:57:04.815Z,3.30
2023-03-05T13:59:33.458Z,1.35
2023-03-05T14:02:15.731Z,1.50
2023-03-05T14:04:48.719Z,1.42
2023-03-05T14:07:36.737Z,1.50
2023-03-05T14:10:04.818Z,1.02
2023-03-05T14:12:42.874Z,1.13
2023-03-05T14:15:25.976Z,1.45
2023-03-05T14:17:52.620Z,1.50
2023-03-05T14:20:22.582Z,1.70
2023-03-05T14:22:49.301Z,1.48
2023-03-05T14:25:24.579Z,1.33
2023-03-05T14:27:52.283Z,1.35
2023-03-05T14:30:20.428Z,1.95
2023-03-05T14:32:52.904Z,1.45
2023-03-05T14:35:20.272Z,1.88
2023-03-05T14:37:48.819Z,1.60
2023-03-05T14:40:14.598Z,1.55
2023-03-05T14:42:40.408Z,1.13
2023-03-05T14:45:14.468Z,1.40
2023-03-05T14:47:40.925Z,1.67
2023-03-05T14:50:08.221Z,1.25
2023-03-05T14:52:34.986Z,1.20
2023-03-05T14:55:01.124Z,2.05
2023-03-05T14:57:27.652Z,1.40
2023-03-05T14:59:54.932Z,1.60
2023-03-05T15:02:22.045Z,1.27
2023-03-05T15:04:48.471Z,0.80
2023-03-05T15:07:17.227Z,1.30
2023-03-05T15:09:43.390Z,1.17
2023-03-05T15:12:11.007Z,1.75
2023-03-05T15:14:36.899Z,1.08
2023-03-05T15:17:02.924Z,1.35
2023-03-05T15:19:28.724Z,1.23
2023-03-05T15:21:54.947Z,1.38
2023-03-05T15:24:20.862Z,1.27
2023-03-05T15:26:48.698Z,1.67
2023-03-05T15:29:16.320Z,1.60
2023-03-05T15:31:42.457Z,1.48
2023-03-05T15:34:17.503Z,1.55
2023-03-05T15:36:43.603Z,1.65
2023-03-05T15:39:09.412Z,1.60
2023-03-05T15:41:35.431Z,1.27
2023-03-05T15:44:01.249Z,1.70
2023-03-05T15:46:27.140Z,1.38
2023-03-05T15:48:52.993Z,1.50
2023-03-05T15:51:19.807Z,1.23
2023-03-05T15:53:46.106Z,1.80
2023-03-05T15:56:16.084Z,1.15
2023-03-05T15:58:43.120Z,1.83
2023-03-05T16:01:10.076Z,1.23
2023-03-05T16:03:38.951Z,2.20
2023-03-05T16:06:05.338Z,2.30
2023-03-05T16:08:32.794Z,2.15
2023-03-05T16:11:00.954Z,1.50
2023-03-05T16:13:28.789Z,1.58
2023-03-05T16:15:55.341Z,1.55
2023-03-05T16:18:21.767Z,2.28
2023-03-05T16:20:48.080Z,1.98
2023-03-05T16:23:14.211Z,2.42
2023-03-05T16:25:40.107Z,1.90
2023-03-05T16:28:06.199Z,2.63
2023-03-05T16:30:35.085Z,2.03
2023-03-05T16:33:13.352Z,2.08
2023-03-05T16:35:39.363Z,2.35
2023-03-05T16:38:06.499Z,2.05
2023-03-05T16:41:02.898Z,1.90
2023-03-05T16:43:23.250Z,2.65
2023-03-05T16:45:49.145Z,1.88
2023-03-05T16:48:15.096Z,2.20
2023-03-05T16:50:40.910Z,2.67
2023-03-05T16:53:06.913Z,2.28
2023-03-05T16:55:32.962Z,1.98
2023-03-05T16:57:58.793Z,2.28
2023-03-05T17:00:24.670Z,2.60
2023-03-05T17:02:50.520Z,2.40
2023-03-05T17:05:16.377Z,2.33
2023-03-05T17:07:43.805Z,2.63
2023-03-05T17:10:10.035Z,2.90
2023-03-05T17:12:35.982Z,3.10
2023-03-05T17:15:01.960Z,2.58
2023-03-05T17:17:27.840Z,2.60
2023-03-05T17:19:53.910Z,3.13
2023-03-05T17:22:19.727Z,3.15
2023-03-05T17:24:46.773Z,2.20
2023-03-05T17:27:12.612Z,2.75
2023-03-05T17:29:38.605Z,3.80
2023-03-05T17:32:06.092Z,3.13
2023-03-05T17:34:36.625Z,3.90
2023-03-05T17:37:03.743Z,3.00
2023-03-05T17:39:29.572Z,3.95
2023-03-05T17:41:55.590Z,2.70
2023-03-05T17:44:21.501Z,2.40
2023-03-05T17:46:47.398Z,2.70
2023-03-05T17:49:13.268Z,2.67
2023-03-05T17:51:39.556Z,2.70
2023-03-05T17:54:05.536Z,2.55
2023-03-05T17:56:32.321Z,2.90
2023-03-05T17:58:58.408Z,3.20
2023-03-05T18:01:27.474Z,3.15
2023-03-05T18:03:53.482Z,2.83
2023-03-05T18:06:19.367Z,3.47
2023-03-05T18:08:45.298Z,3.25
2023-03-05T18:11:11.253Z,3.20
2023-03-05T18:13:37.376Z,2.50
2023-03-05T18:16:03.369Z,2.78
2023-03-05T18:18:29.192Z,3.13
2023-03-05T18:20:55.494Z,2.88
2023-03-05T18:23:21.532Z,2.92
2023-03-05T18:25:47.508Z,3.10
2023-03-05T18:28:14.152Z,2.90
2023-03-05T18:30:41.379Z,2.95
2023-03-05T18:33:08.589Z,2.53
2023-03-05T18:35:35.370Z,2.90
2023-03-05T18:38:01.398Z,3.38
2023-03-05T18:40:28.717Z,3.42
2023-03-05T18:42:54.777Z,3.55
2023-03-05T18:45:22.267Z,3.80
2023-03-05T18:47:53.252Z,3.30
2023-03-05T18:50:19.668Z,3.92
2023-03-05T18:52:45.882Z,4.20
2023-03-05T18:55:15.409Z,4.88
2023-03-05T18:57:42.883Z,5.72
2023-03-05T19:00:10.140Z,4.75
2023-03-05T19:02:36.483Z,3.65
2023-03-05T19:05:02.618Z,3.78
2023-03-05T19:07:29.536Z,3.72
2023-03-05T19:09:59.485Z,3.80
2023-03-05T19:12:30.374Z,5.10
2023-03-05T19:17:21.934Z,4.43
2023-03-05T19:19:51.475Z,4.10
2023-03-05T19:22:17.343Z,3.92
2023-03-05T19:24:43.251Z,5.05
2023-03-05T19:27:12.968Z,5.55
2023-03-05T19:29:40.287Z,4.55
2023-03-05T19:32:07.458Z,4.25
2023-03-05T19:34:36.618Z,5.80
2023-03-05T19:37:03.315Z,4.80
2023-03-05T19:39:29.256Z,3.70
2023-03-05T19:41:55.006Z,4.07
2023-03-05T19:44:20.916Z,4.00
2023-03-05T19:46:48.079Z,4.25
2023-03-05T19:49:17.594Z,5.85
2023-03-05T19:51:44.001Z,3.65
2023-03-05T19:54:14.125Z,4.30
2023-03-05T19:56:40.539Z,4.38
2023-03-05T19:59:06.647Z,4.63
2023-03-05T20:01:32.997Z,5.10
2023-03-05T20:04:04.513Z,3.95
2023-03-05T20:06:31.016Z,4.55
2023-03-05T20:08:57.194Z,5.65
2023-03-05T20:11:23.598Z,4.63
2023-03-05T20:13:50.040Z,5.57
2023-03-05T20:16:20.818Z,5.53
2023-03-05T20:18:49.758Z,5.75
2023-03-05T20:21:20.918Z,4.65
2023-03-05T20:23:46.944Z,4.82
2023-03-05T20:26:12.934Z,5.32
2023-03-05T20:28:38.891Z,4.45
2023-03-05T20:31:05.514Z,4.68
2023-03-05T20:33:36.468Z,4.53
2023-03-05T20:36:02.305Z,5.03
2023-03-05T20:38:31.586Z,5.63
2023-03-05T20:40:59.253Z,5.88
2023-03-05T20:43:34.661Z,4.72
2023-03-05T20:46:01.524Z,4.13
2023-03-05T20:48:29.391Z,4.38
2023-03-05T20:50:55.148Z,4.28
2023-03-05T20:53:20.967Z,3.13
2023-03-05T20:55:46.734Z,3.35
2023-03-05T20:58:12.875Z,4.88
2023-03-05T21:00:39.960Z,3.83
2023-03-05T21:03:06.349Z,3.50
2023-03-05T21:05:34.395Z,3.67
2023-03-05T21:08:00.456Z,3.13
2023-03-05T21:10:26.449Z,3.83
2023-03-05T21:12:53.159Z,3.13
2023-03-05T21:15:24.464Z,2.72
2023-03-05T21:17:50.948Z,3.38
2023-03-05T21:20:21.455Z,3.25
2023-03-05T21:22:47.202Z,4.22
2023-03-05T21:25:22.628Z,3.60
2023-03-05T21:27:50.366Z,3.08
2023-03-05T21:30:17.202Z,4.05
2023-03-05T21:32:43.204Z,4.35
2023-03-05T21:35:12.126Z,4.07
2023-03-05T21:37:41.820Z,4.15
2023-03-05T21:40:09.455Z,3.67
2023-03-05T21:42:35.390Z,4.03
2023-03-05T21:45:01.278Z,3.35
2023-03-05T21:47:27.060Z,3.47
2023-03-05T21:49:52.803Z,3.55
2023-03-05T21:52:18.730Z,3.65
2023-03-05T21:54:45.503Z,3.40
2023-03-05T21:57:12.502Z,3.38
2023-03-05T21:59:39.155Z,3.45
2023-03-05T22:02:05.055Z,4.28
2023-03-05T22:04:30.838Z,3.50
2023-03-05T22:06:56.611Z,3.30
2023-03-05T22:09:22.410Z,3.58
2023-03-05T22:11:48.356Z,2.83
2023-03-05T22:14:16.206Z,3.15
2023-03-05T22:16:42.670Z,3.55
2023-03-05T22:19:09.392Z,3.70
2023-03-05T22:21:35.134Z,3.20
2023-03-05T22:24:00.963Z,3.13
2023-03-05T22:26:34.003Z,3.50
2023-03-05T22:28:59.716Z,3.28
2023-03-05T22:31:26.263Z,3.70
2023-03-05T22:33:52.326Z,4.05
2023-03-05T22:36:18.444Z,3.70
2023-03-05T22:38:44.207Z,3.67
2023-03-05T22:41:11.291Z,4.05
2023-03-05T22:43:37.065Z,3.35
2023-03-05T22:46:13.550Z,3.67
2023-03-05T22:48:39.630Z,4.20
2023-03-05T22:51:05.642Z,4.80
2023-03-05T22:53:31.573Z,4.10
2023-03-05T22:55:57.479Z,4.10
2023-03-05T22:58:23.268Z,3.92
2023-03-05T23:00:49.107Z,4.22
2023-03-05T23:03:15.385Z,5.25
2023-03-05T23:05:41.479Z,5.35
2023-03-05T23:08:07.361Z,4.10
2023-03-05T23:10:33.185Z,4.97
2023-03-05T23:12:59.774Z,3.80
2023-03-05T23:15:27.462Z,4.20
2023-03-05T23:17:53.409Z,4.93
2023-03-05T23:20:20.441Z,4.68
2023-03-05T23:22:46.202Z,4.22
2023-03-05T23:25:12.799Z,5.32
2023-03-05T23:27:38.697Z,4.63
2023-03-05T23:30:15.994Z,4.82
2023-03-05T23:32:47.555Z,4.65
2023-03-05T23:35:14.640Z,5.90
2023-03-05T23:37:40.658Z,4.57
2023-03-05T23:40:10.733Z,4.25
2023-03-05T23:42:37.540Z,4.28
2023-03-05T23:45:04.094Z,3.90
2023-03-05T23:47:29.911Z,4.07
2023-03-05T23:49:55.628Z,3.80
2023-03-05T23:52:21.367Z,4.18
2023-03-05T23:54:47.187Z,3.92
2023-03-05T23:57:12.955Z,4.05
2023-03-05T23:59:38.701Z,3.83
